Catàleg de serveis del Meteocat
Campanya meteocatpedra

Dades de l'estació automàtica Vilanova de Meià

?
?
Resum diari 22:00 TU
Dades diàries de l'estació meteorològica
Temperatura mitjana 13.3 °C
Temperatura màxima 18.2 °C 13:32 TU
Temperatura mínima 8.1 °C 2:51 TU
Humitat relativa mitjana 59%
Precipitació acumulada 0.1 mm
Ratxa màxima del vent (10 m) 40.7 km/h - 166º 12:30 TU
Pressió atmosfèrica mitjana 1016.6 hPa

El tram horari està expressat en Temps Universal (TU). Cal sumar una hora en horari d'hivern i dues en horari d'estiu per passar a l'hora oficial.

Vilanova de Meià

Metadades estació meteorol´gica
Municipi Vilanova de Meià
Comarca Noguera
Altitud 594 m
Data alta 01.04.1996
Estat actual Operativa
Dades de període
Període
TU
TM
°C
TX
°C
TN
°C
HRM
%
PPT
mm
VVM (10 m)
km/h
DVM (10 m)
graus
VVX (10 m)
km/h
PM
hPa
00:00 - 00:30 10.0 10.2 9.8 84 0.0 2.5 42 6.1 1018.6
00:30 - 01:00 9.9 10.1 9.5 83 0.0 4.3 32 8.6 1018.3
01:00 - 01:30 9.7 9.9 9.5 83 0.0 4.0 25 9.4 1018.2
01:30 - 02:00 9.7 9.8 9.2 82 0.0 2.5 30 7.6 1018.3
02:00 - 02:30 8.9 9.2 8.5 83 0.0 4.0 30 7.2 1018.8
02:30 - 03:00 8.3 8.4 8.1 83 0.0 5.0 29 9.7 1019.0
03:00 - 03:30 8.3 8.5 8.2 81 0.0 5.8 26 10.8 1018.6
03:30 - 04:00 8.9 9.4 8.5 77 0.0 6.1 21 10.8 1018.1
04:00 - 04:30 9.3 9.6 8.7 76 0.0 4.0 28 10.1 1017.5
04:30 - 05:00 10.1 10.4 9.6 72 0.0 5.4 30 11.2 1017.0
05:00 - 05:30 10.7 11.4 9.7 72 0.0 3.6 36 10.4 1016.9
05:30 - 06:00 10.0 10.3 9.6 77 0.0 2.5 35 7.9 1017.5
06:00 - 06:30 10.3 10.6 10.0 77 0.0 3.6 29 9.0 1017.6
06:30 - 07:00 10.7 10.9 10.6 78 0.0 2.5 240 6.8 1017.7
07:00 - 07:30 11.5 12.3 10.8 77 0.0 0.7 183 3.2 1017.8
07:30 - 08:00 12.7 13.1 12.3 71 0.0 2.2 176 5.4 1017.8
08:00 - 08:30 13.4 14.1 13.0 69 0.0 4.0 195 15.1 1018.0
08:30 - 09:00 14.3 14.9 13.9 60 0.0 8.3 185 20.9 1018.6
09:00 - 09:30 13.9 14.4 13.7 57 0.0 6.8 18 22.3 1018.1
09:30 - 10:00 13.7 13.8 13.7 57 0.0 9.7 15 21.2 1017.6
10:00 - 10:30 14.5 14.8 13.8 58 0.1 4.7 283 18.4 1016.9
10:30 - 11:00 15.6 16.1 14.9 55 0.0 5.0 234 15.5 1016.3
11:00 - 11:30 15.6 16.0 15.4 55 0.0 6.8 211 26.3 1016.2
11:30 - 12:00 15.7 16.5 15.2 53 0.0 9.0 360 25.9 1015.3
12:00 - 12:30 17.1 17.6 16.5 48 0.0 9.4 280 28.4 1014.9
12:30 - 13:00 17.5 17.9 17.1 44 0.0 12.6 197 40.7 1014.8
13:00 - 13:30 17.7 18.1 17.2 43 0.0 10.4 218 27.7 1014.2
13:30 - 14:00 18.0 18.2 17.8 41 0.0 16.6 196 37.8 1014.2
14:00 - 14:30 17.7 17.9 17.6 41 0.0 14.8 178 30.6 1014.5
14:30 - 15:00 17.3 17.7 17.0 43 0.0 10.4 198 24.8 1014.7
15:00 - 15:30 16.8 17.1 16.7 45 0.0 7.9 225 19.4 1014.1
15:30 - 16:00 16.7 16.9 16.6 46 0.0 9.7 218 26.3 1013.9
16:00 - 16:30 16.5 16.6 16.3 46 0.0 10.4 216 22.7 1014.3
16:30 - 17:00 16.1 16.3 15.8 46 0.0 10.1 195 21.6 1014.4
17:00 - 17:30 15.8 16.0 15.7 45 0.0 7.9 224 20.2 1014.6
17:30 - 18:00 15.5 15.7 15.2 43 0.0 10.4 237 18.7 1014.6
18:00 - 18:30 15.0 15.4 14.2 44 0.0 5.8 278 13.3 1015.0
18:30 - 19:00 13.5 14.2 12.8 54 0.0 1.8 34 5.8 1015.5
19:00 - 19:30 12.9 13.0 12.5 55 0.0 3.2 26 6.8 1016.1
19:30 - 20:00 12.6 12.8 12.2 56 0.0 2.5 29 6.8 1016.5
20:00 - 20:30 13.2 14.4 12.0 47 0.0 7.2 232 24.8 1016.8
20:30 - 21:00 14.0 14.2 13.6 37 0.0 11.2 195 25.9 1016.9
21:00 - 21:30 13.7 14.1 13.4 38 0.0 9.0 211 31.0 1017.3
21:30 - 22:00 13.6 13.7 13.0 40 0.0 4.7 287 13.7 1017.3
22:00 - 22:30 11.7 12.9 11.0 50 0.0 2.9 27 10.1 1017.9

Les dades en taronja només han passat un control de qualitat automàtic. Resta pendent la seva validació definitiva.